Edenderry, Ireland
Current Conditions -  °F | °C
As of 8:00 AM on Monday 24 Nov 2014 (Local Time) from EIME Reporting Station
Broken Clouds Broken Clouds  
Wind Chill: 35°   Ceiling: 19000
Heat Index: 41°   Visibility: 6mi
Dew Point: 36°   Wind: 10mph
Humidity: 81%   Direction: 210°SSW
Pressure: 30.21"   Gusts: NA
Location:  53.34°N, 7.05°W
Report Text: EIME 240800Z 21009KT 9999 FEW040 BKN190 05/02 Q1023
Loading
Personal Weather Stations






























Interactive Weather Map New forecast layout! Learn more

10-Day Weather Forecast

Advertisements
Track Severe Weather on mobile